Time;durP1;ratioP1;P1;durP2;ratioP2;P2;SDS_P1;SDS_P2;PMS_P1;PMS_P2;Temp;Humidity;BMP_temperature;BMP_pressure;BME280_temperature;BME280_humidity;BME280_pressure;Samples;Min_cycle;Max_cycle;Signal;HPM_P1;HPM_P2
2022/06/12 00:01:30;;;;;;;26.25;13.45;;;;;;;15.59;100.00;100422.23;1739574;82;20920;-41
2022/06/12 00:03:57;;;;;;;23.18;13.65;;;;;;;15.65;100.00;100421.98;1739026;82;21522;-40
2022/06/12 00:06:23;;;;;;;19.48;12.75;;;;;;;15.62;100.00;100425.19;1712455;83;20934;-41
2022/06/12 00:08:50;;;;;;;22.77;13.22;;;;;;;15.52;100.00;100422.92;1706522;84;22224;-41
2022/06/12 00:11:19;;;;;;;23.52;12.70;;;;;;;15.38;100.00;100419.55;1718059;82;20987;-40
2022/06/12 00:13:52;;;;;;;20.62;12.98;;;;;;;15.30;100.00;100424.23;1731298;82;20927;-40
2022/06/12 00:16:19;;;;;;;26.97;12.85;;;;;;;15.26;100.00;100424.40;1723337;82;20952;-41
2022/06/12 00:18:46;;;;;;;23.60;13.35;;;;;;;15.18;100.00;100420.81;1710922;83;20937;-41
2022/06/12 00:21:15;;;;;;;19.82;13.30;;;;;;;15.16;100.00;100423.93;1710667;83;21116;-41
2022/06/12 00:23:52;;;;;;;22.20;12.33;;;;;;;15.15;100.00;100424.81;1710955;83;20897;-41
2022/06/12 00:26:24;;;;;;;22.70;13.03;;;;;;;15.11;100.00;100418.02;1709270;82;20973;-40
2022/06/12 00:29:05;;;;;;;21.25;13.10;;;;;;;15.13;100.00;100420.11;1724668;82;20942;-41
2022/06/12 00:31:32;;;;;;;32.80;14.68;;;;;;;15.16;100.00;100413.50;1715249;82;20907;-41
2022/06/12 00:34:01;;;;;;;24.82;13.30;;;;;;;15.31;100.00;100412.89;1710233;82;22209;-40
2022/06/12 00:36:28;;;;;;;28.20;13.28;;;;;;;15.40;100.00;100411.69;1711982;83;20934;-40
2022/06/12 00:38:55;;;;;;;18.98;13.03;;;;;;;15.36;100.00;100408.34;1706632;84;21066;-41
2022/06/12 00:41:23;;;;;;;19.30;12.95;;;;;;;15.31;100.00;100408.14;1711792;83;21450;-41
2022/06/12 00:43:50;;;;;;;21.93;12.73;;;;;;;15.23;100.00;100400.61;1713290;82;20953;-40
2022/06/12 00:46:48;;;;;;;21.20;13.13;;;;;;;15.14;100.00;100400.51;1733936;82;21205;-40
2022/06/12 00:49:35;;;;;;;18.80;12.25;;;;;;;15.08;100.00;100396.84;1737181;81;20988;-40
2022/06/12 00:52:24;;;;;;;23.47;12.53;;;;;;;15.11;100.00;100404.55;1722488;81;20887;-40
2022/06/12 00:54:55;;;;;;;18.35;12.03;;;;;;;15.04;100.00;100407.00;1714568;83;20995;-41
2022/06/12 00:57:23;;;;;;;20.72;11.78;;;;;;;14.91;100.00;100404.84;1721597;82;20980;-41
2022/06/12 00:59:55;;;;;;;23.18;12.43;;;;;;;14.79;100.00;100404.00;1719127;83;21106;-41
2022/06/12 01:02:27;;;;;;;24.52;12.37;;;;;;;14.72;100.00;100406.41;1717459;81;20966;-41
2022/06/12 01:07:41;;;;;;;20.68;12.82;;;;;;;14.65;100.00;100413.56;1717643;82;20968;-41
2022/06/12 01:10:10;;;;;;;24.25;11.80;;;;;;;14.59;100.00;100409.45;1721175;81;20861;-41
2022/06/12 01:12:49;;;;;;;17.52;11.65;;;;;;;14.55;100.00;100407.86;1719056;82;21090;-41
2022/06/12 01:15:16;;;;;;;26.95;12.47;;;;;;;14.48;100.00;100407.66;1720326;83;21469;-41
2022/06/12 01:17:44;;;;;;;21.93;12.28;;;;;;;14.39;100.00;100405.39;1734661;80;21667;-41
2022/06/12 01:20:15;;;;;;;16.57;11.35;;;;;;;14.33;100.00;100403.41;1718086;83;20975;-41
2022/06/12 01:23:13;;;;;;;21.12;10.65;;;;;;;14.28;100.00;100405.33;1720141;81;20927;-41
2022/06/12 01:26:24;;;;;;;16.57;11.15;;;;;;;14.25;100.00;100411.91;1734444;81;21260;-41
2022/06/12 01:29:01;;;;;;;15.23;11.20;;;;;;;14.19;100.00;100412.13;1746537;81;22373;-40
2022/06/12 01:31:46;;;;;;;16.00;11.18;;;;;;;14.14;100.00;100412.75;1717472;83;20903;-40
2022/06/12 01:34:41;;;;;;;16.30;11.78;;;;;;;14.08;100.00;100402.09;1692642;83;21952;-40
2022/06/12 01:37:47;;;;;;;18.30;12.68;;;;;;;14.04;100.00;100403.09;1732131;81;21490;-40
2022/06/12 01:40:35;;;;;;;22.82;10.50;;;;;;;13.98;100.00;100398.94;1699261;83;21848;-40
2022/06/12 01:43:26;;;;;;;21.17;12.88;;;;;;;13.94;100.00;100399.52;1715835;83;21035;-39
2022/06/12 01:46:11;;;;;;;18.87;12.80;;;;;;;13.93;100.00;100400.85;1715767;83;21445;-40
2022/06/12 01:48:46;;;;;;;20.57;13.65;;;;;;;13.90;100.00;100399.66;1698309;81;21409;-40
2022/06/12 01:51:23;;;;;;;24.18;13.38;;;;;;;13.96;100.00;100399.45;1693581;84;20921;-40
2022/06/12 01:54:05;;;;;;;20.88;13.40;;;;;;;14.08;100.00;100402.95;1694675;83;21354;-40
2022/06/12 01:56:46;;;;;;;21.52;12.80;;;;;;;14.12;100.00;100419.30;1716201;83;20881;-40
2022/06/12 01:59:45;;;;;;;20.17;13.05;;;;;;;14.12;100.00;100434.08;1718102;83;21505;-40
2022/06/12 02:02:44;;;;;;;18.10;14.00;;;;;;;14.14;100.00;100406.24;1725594;81;20979;-40
2022/06/12 02:05:44;;;;;;;24.63;14.35;;;;;;;14.22;100.00;100421.13;1716111;83;21364;-41
2022/06/12 02:08:25;;;;;;;19.73;12.90;;;;;;;14.26;100.00;100411.48;1716223;83;21326;-40
2022/06/12 02:14:20;;;;;;;23.57;14.20;;;;;;;14.22;100.00;100398.58;1669689;85;20947;-41
2022/06/12 02:16:50;;;;;;;17.50;13.60;;;;;;;14.34;100.00;100407.71;1661396;86;20959;-40
2022/06/12 02:19:20;;;;;;;22.98;15.20;;;;;;;14.39;100.00;100403.63;1690369;83;21536;-41
2022/06/12 02:21:53;;;;;;;20.57;15.05;;;;;;;14.46;100.00;100409.03;1716849;83;21234;-41
2022/06/12 02:24:28;;;;;;;33.23;15.18;;;;;;;14.54;100.00;100419.63;1716664;83;20999;-40
2022/06/12 02:27:12;;;;;;;21.75;14.10;;;;;;;14.59;100.00;100414.66;1688749;83;20956;-41
2022/06/12 02:30:12;;;;;;;25.30;13.65;;;;;;;14.61;100.00;100409.38;1717929;83;20910;-40
2022/06/12 02:33:05;;;;;;;23.15;15.18;;;;;;;14.63;100.00;100404.52;1722452;83;20925;-41
2022/06/12 02:35:49;;;;;;;19.73;14.85;;;;;;;14.67;100.00;100409.17;1722575;82;21140;-41
2022/06/12 02:38:38;;;;;;;20.77;13.83;;;;;;;14.70;100.00;100410.36;1722570;83;21559;-42
2022/06/12 02:41:29;;;;;;;27.73;15.70;;;;;;;14.73;100.00;100411.58;1718688;82;20979;-41
2022/06/12 02:43:59;;;;;;;26.00;14.95;;;;;;;14.81;100.00;100413.91;1716071;83;21000;-41
2022/06/12 02:46:40;;;;;;;22.98;15.38;;;;;;;14.97;100.00;100410.72;1717573;83;21625;-41
2022/06/12 02:49:09;;;;;;;23.87;15.90;;;;;;;15.08;100.00;100414.62;1725391;82;21242;-41
2022/06/12 02:51:50;;;;;;;31.70;15.25;;;;;;;15.21;100.00;100411.56;1727536;83;20945;-42
2022/06/12 02:54:29;;;;;;;29.42;15.00;;;;;;;15.30;100.00;100409.89;1727639;82;20981;-41
2022/06/12 02:57:13;;;;;;;23.90;14.53;;;;;;;15.38;100.00;100413.51;1727653;82;20985;-41
2022/06/12 03:00:09;;;;;;;24.25;14.80;;;;;;;15.46;100.00;100411.44;1726909;83;20963;-41
2022/06/12 03:02:46;;;;;;;22.13;14.13;;;;;;;15.55;100.00;100409.39;1722469;83;20995;-41
2022/06/12 03:05:26;;;;;;;23.02;14.47;;;;;;;15.65;100.00;100406.33;1724509;83;20855;-41
2022/06/12 03:07:59;;;;;;;26.23;15.13;;;;;;;15.80;100.00;100404.02;1727536;82;20960;-41
2022/06/12 03:10:34;;;;;;;24.70;13.93;;;;;;;15.92;100.00;100402.25;1727565;82;20965;-41
2022/06/12 03:13:03;;;;;;;21.30;13.68;;;;;;;16.03;100.00;100413.52;1727726;82;20917;-40
2022/06/12 03:15:39;;;;;;;20.00;13.00;;;;;;;16.13;100.00;100411.84;1727636;83;21147;-41
2022/06/12 03:18:11;;;;;;;24.12;13.32;;;;;;;16.20;100.00;100411.97;1727423;82;20914;-42
2022/06/12 03:20:45;;;;;;;25.17;12.85;;;;;;;16.32;100.00;100407.53;1727460;83;21377;-41
2022/06/12 03:23:44;;;;;;;18.37;12.18;;;;;;;16.39;100.00;100402.87;1727694;82;20914;-41
2022/06/12 03:26:16;;;;;;;24.37;11.93;;;;;;;16.47;100.00;100405.16;1722437;83;20912;-42
2022/06/12 03:29:13;;;;;;;19.82;12.10;;;;;;;16.52;100.00;100402.73;1722286;83;21395;-41
2022/06/12 03:31:54;;;;;;;15.20;12.28;;;;;;;16.55;100.00;100404.38;1722021;83;20951;-42
2022/06/12 03:34:44;;;;;;;20.95;11.95;;;;;;;16.63;100.00;100407.48;1695458;83;21478;-41
2022/06/12 03:37:22;;;;;;;28.00;12.37;;;;;;;16.73;100.00;100401.84;1718372;83;20959;-42
2022/06/12 03:40:01;;;;;;;30.48;11.80;;;;;;;16.88;100.00;100403.77;1722061;83;21425;-42
2022/06/12 03:43:01;;;;;;;29.82;11.48;;;;;;;17.12;100.00;100397.05;1722090;82;21860;-42
2022/06/12 03:45:51;;;;;;;19.62;11.08;;;;;;;17.43;100.00;100394.72;1726018;83;20965;-42
2022/06/12 03:48:26;;;;;;;21.05;9.68;;;;;;;17.78;100.00;100402.16;1727671;82;20914;-42
2022/06/12 03:51:18;;;;;;;13.90;9.98;;;;;;;18.07;100.00;100394.67;1724136;83;21444;-42
2022/06/12 03:53:54;;;;;;;16.12;9.25;;;;;;;18.37;100.00;100391.39;1707459;82;20938;-42
2022/06/12 03:59:38;;;;;;;20.32;10.58;;;;;;;18.99;99.33;100400.41;1727423;83;20993;-42
2022/06/12 04:02:07;;;;;;;17.95;10.50;;;;;;;19.34;94.64;100402.84;1727759;82;20938;-42
2022/06/12 04:04:35;;;;;;;17.00;10.58;;;;;;;19.65;90.90;100405.03;1724853;82;20994;-42
2022/06/12 04:07:04;;;;;;;17.23;9.20;;;;;;;19.90;83.91;100400.15;1721873;83;20889;-42
2022/06/12 04:09:35;;;;;;;18.62;10.48;;;;;;;20.16;83.60;100404.36;1722214;83;21173;-41
2022/06/12 04:12:07;;;;;;;13.83;9.90;;;;;;;20.39;82.60;100398.56;1722109;83;20956;-42
2022/06/12 04:14:44;;;;;;;21.45;10.80;;;;;;;20.62;80.65;100398.95;1722498;83;21014;-42
2022/06/12 04:17:11;;;;;;;17.12;10.10;;;;;;;20.79;78.32;100400.98;1722027;83;21513;-42
2022/06/12 04:22:28;;;;;;;18.60;10.13;;;;;;;21.27;75.94;100399.33;1722465;83;21159;-41
2022/06/12 04:24:58;;;;;;;26.33;15.60;;;;;;;21.59;74.01;100396.37;1725364;83;20985;-42
2022/06/12 04:27:32;;;;;;;23.83;12.75;;;;;;;21.87;72.99;100391.94;1727485;83;21063;-41
2022/06/12 04:30:18;;;;;;;18.20;11.05;;;;;;;22.07;71.13;100391.06;1735477;82;21429;-44
2022/06/12 04:32:46;;;;;;;14.05;10.82;;;;;;;22.17;69.91;100392.11;1727597;82;21024;-40
2022/06/12 04:35:13;;;;;;;15.72;9.90;;;;;;;22.32;68.06;100388.89;1727522;83;22046;-41
2022/06/12 04:37:42;;;;;;;22.93;10.88;;;;;;;22.56;67.69;100396.57;1727422;82;20938;-41
2022/06/12 04:40:17;;;;;;;23.30;10.88;;;;;;;22.78;66.73;100395.42;1722404;83;21101;-42
2022/06/12 04:42:44;;;;;;;21.57;10.98;;;;;;;23.05;65.08;100397.50;1724352;82;23627;-42
2022/06/12 04:45:12;;;;;;;22.67;10.58;;;;;;;23.28;64.17;100398.98;1727630;82;20966;-44
2022/06/12 04:47:39;;;;;;;18.42;9.93;;;;;;;23.50;63.60;100389.84;1727496;82;22486;-41
2022/06/12 04:50:09;;;;;;;16.52;10.25;;;;;;;23.68;62.63;100386.80;1717284;82;20946;-42
2022/06/12 04:52:36;;;;;;;22.32;10.28;;;;;;;23.83;60.91;100389.58;1714652;82;21106;-42
2022/06/12 04:55:05;;;;;;;16.37;9.55;;;;;;;23.96;60.04;100395.28;1714703;83;20946;-42
2022/06/12 04:57:34;;;;;;;23.02;9.73;;;;;;;24.18;58.75;100389.70;1714645;82;20934;-42
2022/06/12 05:00:00;;;;;;;17.80;9.38;;;;;;;24.38;58.51;100392.97;1714698;82;21973;-42
2022/06/12 05:02:27;;;;;;;16.02;9.30;;;;;;;24.64;57.89;100394.52;1714486;82;21526;-42
2022/06/12 05:04:55;;;;;;;18.23;8.75;;;;;;;24.73;56.67;100392.94;1714751;82;20984;-41
2022/06/12 05:07:21;;;;;;;20.68;8.90;;;;;;;24.85;56.04;100402.56;1690359;83;20960;-41
2022/06/12 05:09:48;;;;;;;17.15;9.10;;;;;;;25.01;55.83;100397.38;1712745;83;21057;-41
2022/06/12 05:12:14;;;;;;;15.53;9.28;;;;;;;25.29;55.67;100397.78;1709179;84;21127;-41
2022/06/12 05:14:43;;;;;;;19.92;9.15;;;;;;;25.37;54.18;100404.60;1708744;84;20929;-41
2022/06/12 05:17:13;;;;;;;16.00;8.35;;;;;;;25.47;54.52;100402.08;1708801;84;21617;-41
2022/06/12 05:19:42;;;;;;;16.90;8.93;;;;;;;25.65;54.43;100394.43;1708927;83;20971;-41
2022/06/12 05:22:09;;;;;;;15.70;7.78;;;;;;;25.92;53.45;100397.05;1708753;82;21423;-41
2022/06/12 05:24:38;;;;;;;14.40;8.10;;;;;;;26.11;52.58;100391.84;1709056;84;21553;-42
2022/06/12 05:27:08;;;;;;;18.52;8.08;;;;;;;26.31;52.36;100388.00;1708740;84;20953;-42
2022/06/12 05:29:37;;;;;;;14.75;8.00;;;;;;;26.41;50.79;100384.56;1708740;84;20914;-42
2022/06/12 05:32:05;;;;;;;17.32;7.17;;;;;;;26.44;51.53;100385.63;1708754;84;21552;-42
2022/06/12 05:34:33;;;;;;;12.95;8.18;;;;;;;26.48;50.61;100383.88;1708889;84;20964;-42
2022/06/12 05:37:00;;;;;;;11.22;7.25;;;;;;;26.60;50.69;100377.98;1709800;83;21036;-42
2022/06/12 05:39:27;;;;;;;19.67;8.28;;;;;;;26.72;49.49;100381.37;1708588;82;20956;-42
2022/06/12 05:41:54;;;;;;;15.08;7.75;;;;;;;26.82;49.01;100378.73;1708805;82;21040;-41
2022/06/12 05:44:21;;;;;;;15.30;7.20;;;;;;;27.07;51.10;100372.59;1708722;84;20920;-42
2022/06/12 05:46:47;;;;;;;16.67;7.55;;;;;;;27.18;49.87;100374.28;1708851;84;20988;-43
2022/06/12 05:49:14;;;;;;;12.53;7.30;;;;;;;27.29;49.09;100374.64;1712914;83;21564;-43
2022/06/12 05:51:41;;;;;;;9.83;6.97;;;;;;;27.50;49.97;100371.35;1721855;83;20987;-40
2022/06/12 05:54:08;;;;;;;14.07;6.80;;;;;;;27.64;46.74;100376.75;1724020;83;21465;-41
2022/06/12 05:56:35;;;;;;;12.23;6.28;;;;;;;27.77;45.53;100369.81;1727538;82;21598;-41
2022/06/12 05:59:02;;;;;;;13.08;6.70;;;;;;;27.86;45.45;100369.45;1727604;82;20902;-41
2022/06/12 06:01:30;;;;;;;15.00;6.92;;;;;;;27.97;45.00;100364.45;1727507;83;21181;-41
2022/06/12 06:03:57;;;;;;;16.10;7.53;;;;;;;28.05;45.66;100369.05;1727536;82;21032;-41
2022/06/12 06:06:30;;;;;;;31.37;7.10;;;;;;;28.10;44.91;100364.95;1727569;82;21510;-41
2022/06/12 06:08:58;;;;;;;24.18;7.90;;;;;;;28.16;44.99;100362.25;1725241;82;20988;-41
2022/06/12 06:11:25;;;;;;;21.55;7.15;;;;;;;28.30;43.93;100363.59;1722176;83;21011;-41
2022/06/12 06:13:52;;;;;;;18.05;6.97;;;;;;;28.54;45.15;100364.88;1722546;83;21131;-41
2022/06/12 06:16:19;;;;;;;16.00;7.28;;;;;;;28.87;46.05;100363.94;1722400;83;21805;-41
2022/06/12 06:18:45;;;;;;;17.65;7.50;;;;;;;29.03;43.53;100359.77;1722262;83;21011;-42
2022/06/12 06:21:14;;;;;;;12.23;7.30;;;;;;;28.95;45.15;100357.38;1721946;83;21510;-42
2022/06/12 06:23:42;;;;;;;16.57;7.58;;;;;;;28.92;45.16;100351.00;1722190;83;21434;-41
2022/06/12 06:26:09;;;;;;;16.10;7.97;;;;;;;28.85;44.34;100345.94;1722240;83;21146;-43
2022/06/12 06:28:37;;;;;;;13.28;6.97;;;;;;;28.74;45.87;100347.47;1725556;83;20930;-43
2022/06/12 06:31:05;;;;;;;17.42;7.50;;;;;;;28.69;43.18;100345.25;1727624;82;21004;-41
2022/06/12 06:33:33;;;;;;;13.95;7.72;;;;;;;28.59;44.66;100344.48;1727678;83;20933;-41
2022/06/12 06:36:00;;;;;;;12.70;7.92;;;;;;;28.61;45.48;100347.32;1726960;82;20989;-41
2022/06/12 06:38:27;;;;;;;11.30;7.50;;;;;;;28.58;45.71;100348.95;1727649;83;21060;-42
2022/06/12 06:40:53;;;;;;;17.75;8.03;;;;;;;28.77;45.65;100351.98;1725768;82;20916;-43
2022/06/12 06:43:20;;;;;;;15.10;7.47;;;;;;;29.04;45.41;100334.81;1724050;83;20910;-41
2022/06/12 06:48:33;;;;;;;15.53;6.78;;;;;;;29.29;46.69;100341.69;1727716;82;21542;-41
2022/06/12 06:50:59;;;;;;;14.50;7.33;;;;;;;29.57;45.69;100347.78;1727497;82;21392;-42
2022/06/12 06:53:26;;;;;;;14.50;6.75;;;;;;;29.81;43.16;100344.43;1727560;83;20929;-42
2022/06/12 06:55:53;;;;;;;9.53;6.30;;;;;;;29.82;41.89;100351.44;1727382;82;20973;-42
2022/06/12 06:58:23;;;;;;;9.85;6.53;;;;;;;29.89;42.03;100343.65;1711273;83;20930;-41
2022/06/12 07:00:52;;;;;;;12.47;6.83;;;;;;;30.09;40.94;100342.13;1724640;82;20908;-41
2022/06/12 07:03:19;;;;;;;22.67;7.05;;;;;;;30.24;41.28;100341.84;1722246;83;21123;-41
2022/06/12 07:05:46;;;;;;;15.53;7.08;;;;;;;30.30;40.49;100340.38;1722073;83;20983;-41
2022/06/12 07:08:14;;;;;;;20.75;7.45;;;;;;;30.36;41.15;100342.39;1721981;83;21556;-42
2022/06/12 07:10:41;;;;;;;12.50;6.58;;;;;;;30.52;40.29;100338.13;1722136;83;20960;-42
2022/06/12 07:13:08;;;;;;;14.58;6.37;;;;;;;30.55;40.76;100343.13;1696501;83;21608;-42
2022/06/12 07:15:37;;;;;;;15.85;6.53;;;;;;;30.63;41.03;100335.69;1722338;83;21146;-43
2022/06/12 07:18:07;;;;;;;19.50;7.03;;;;;;;30.80;40.30;100340.04;1722126;83;21537;-42
2022/06/12 07:20:37;;;;;;;13.10;6.67;;;;;;;30.80;38.86;100335.22;1695702;83;21552;-42
2022/06/12 07:23:05;;;;;;;15.58;5.97;;;;;;;30.90;38.71;100331.06;1722148;83;21491;-42
2022/06/12 07:25:38;;;;;;;14.05;6.08;;;;;;;31.15;39.68;100333.23;1722251;83;21003;-42
2022/06/12 07:28:05;;;;;;;14.68;6.33;;;;;;;31.30;38.36;100328.09;1725742;83;21151;-42
2022/06/12 07:30:32;;;;;;;18.30;6.53;;;;;;;31.43;37.31;100328.91;1727117;83;21029;-40
2022/06/12 07:32:59;;;;;;;9.58;5.72;;;;;;;31.42;36.34;100329.09;1726388;83;20968;-40
2022/06/12 07:35:26;;;;;;;14.53;6.62;;;;;;;31.44;37.14;100327.91;1727648;82;20891;-42
2022/06/12 07:37:53;;;;;;;15.08;5.58;;;;;;;31.49;37.36;100326.92;1725321;82;21038;-42
2022/06/12 07:40:26;;;;;;;17.95;5.83;;;;;;;31.61;35.41;100322.06;1722117;83;20999;-42
2022/06/12 07:42:53;;;;;;;16.42;5.75;;;;;;;31.71;36.00;100327.72;1722041;82;21535;-42
2022/06/12 07:45:20;;;;;;;10.03;5.20;;;;;;;31.61;34.16;100327.90;1722046;83;20947;-42
2022/06/12 07:47:47;;;;;;;12.28;5.87;;;;;;;31.52;35.50;100323.06;1695400;83;20936;-42
2022/06/12 07:50:15;;;;;;;11.33;4.70;;;;;;;31.68;35.68;100328.87;1715946;83;21055;-42
2022/06/12 07:52:42;;;;;;;8.20;4.53;;;;;;;31.78;33.64;100328.72;1708650;83;21224;-42
2022/06/12 07:55:10;;;;;;;8.58;4.00;;;;;;;31.66;31.13;100325.05;1709356;83;20984;-42
2022/06/12 07:57:38;;;;;;;8.55;4.35;;;;;;;31.39;32.48;100327.58;1714780;82;20966;-43
2022/06/12 08:00:07;;;;;;;9.58;4.58;;;;;;;31.46;31.08;100321.92;1714747;82;20994;-43
2022/06/12 08:02:37;;;;;;;8.35;3.90;;;;;;;31.60;31.99;100324.41;1714637;82;21009;-43
2022/06/12 08:05:05;;;;;;;6.65;4.08;;;;;;;31.75;31.28;100328.55;1710965;82;21362;-43
2022/06/12 08:07:33;;;;;;;5.70;3.67;;;;;;;31.98;30.42;100327.00;1653396;85;21024;-42
2022/06/12 08:10:03;;;;;;;7.97;3.35;;;;;;;32.21;30.56;100324.39;1674465;85;21002;-42
2022/06/12 08:12:37;;;;;;;8.60;3.77;;;;;;;32.32;28.11;100320.04;1674285;84;20920;-42
2022/06/12 08:15:06;;;;;;;16.40;4.60;;;;;;;32.33;28.46;100322.20;1674402;85;21471;-42
2022/06/12 08:17:33;;;;;;;17.10;3.35;;;;;;;32.32;28.75;100320.04;1655484;85;21262;-41
2022/06/12 08:22:48;;;;;;;8.68;3.67;;;;;;;32.63;28.27;100317.86;1674643;85;20955;-42
2022/06/12 08:25:15;;;;;;;31.52;3.65;;;;;;;32.69;28.43;100324.36;1674374;85;20908;-42
2022/06/12 08:27:42;;;;;;;3.50;3.20;;;;;;;32.60;28.42;100316.05;1674345;84;21038;-43
2022/06/12 08:30:09;;;;;;;7.50;3.50;;;;;;;32.61;28.90;100314.52;1674393;84;21250;-42
2022/06/12 08:32:36;;;;;;;12.65;3.80;;;;;;;32.67;29.89;100317.01;1680230;82;20999;-42
2022/06/12 08:35:11;;;;;;;8.10;4.00;;;;;;;33.05;29.69;100314.92;1741162;82;21003;-43
2022/06/12 08:37:38;;;;;;;;;;;;;;;33.38;27.51;100313.29;1742185;82;20956;-43
2022/06/12 08:40:17;;;;;;;12.58;4.42;;;;;;;33.49;28.04;100318.26;1721386;82;20151;-42
2022/06/12 08:43:12;;;;;;;12.75;5.05;;;;;;;33.63;27.79;100319.78;1714460;82;21248;-42
2022/06/12 08:45:48;;;;;;;5.92;4.00;;;;;;;33.73;25.47;100316.34;1714535;83;20929;-43
2022/06/12 08:48:30;;;;;;;6.78;3.65;;;;;;;33.75;25.98;100318.33;1714667;82;21557;-43
2022/06/12 08:51:26;;;;;;;6.58;3.67;;;;;;;33.60;25.17;100306.73;1719039;82;20996;-42
2022/06/12 08:54:02;;;;;;;5.95;4.22;;;;;;;33.63;26.95;100311.73;1723597;82;21559;-43
2022/06/12 08:56:47;;;;;;;23.32;3.98;;;;;;;33.66;25.79;100304.16;1698822;83;21253;-44
2022/06/12 08:59:38;;;;;;;7.95;3.10;;;;;;;33.62;26.95;100308.73;1693674;84;21525;-43
2022/06/12 09:02:10;;;;;;;4.92;3.20;;;;;;;33.62;26.91;100302.02;1708986;82;20967;-42
2022/06/12 09:04:37;;;;;;;5.72;3.10;;;;;;;33.50;27.20;100292.25;1699284;83;20957;-43
2022/06/12 09:07:16;;;;;;;4.85;2.85;;;;;;;33.67;28.07;100287.55;1694242;83;20938;-42
2022/06/12 09:09:56;;;;;;;4.92;2.95;;;;;;;33.73;27.19;100282.80;1720985;83;21302;-42
2022/06/12 09:12:43;;;;;;;3.12;2.80;;;;;;;33.84;27.92;100279.31;1692407;83;20977;-43
2022/06/12 09:15:21;;;;;;;3.58;2.87;;;;;;;33.67;27.18;100287.05;1720866;83;21048;-42
2022/06/12 09:18:04;;;;;;;4.28;2.70;;;;;;;33.61;28.42;100282.92;1719191;83;20916;-43
2022/06/12 09:20:49;;;;;;;11.50;2.87;;;;;;;33.93;27.32;100275.50;1722524;83;20968;-43
2022/06/12 09:23:43;;;;;;;3.15;2.58;;;;;;;34.07;27.29;100270.66;1725653;81;21462;-43
2022/06/12 09:26:26;;;;;;;5.15;2.62;;;;;;;34.03;27.22;100277.44;1688509;81;20915;-42
2022/06/12 09:28:58;;;;;;;8.13;3.67;;;;;;;34.06;27.20;100274.37;1673202;83;21553;-42
2022/06/12 09:31:34;;;;;;;18.50;14.00;;;;;;;34.11;28.19;100273.81;1721869;82;21485;-42
2022/06/12 09:34:15;;;;;;;7.35;3.72;;;;;;;33.98;28.26;100270.46;1723209;81;20987;-42
2022/06/12 09:36:53;;;;;;;9.53;3.42;;;;;;;33.74;27.95;100263.00;1739717;81;21253;-42
2022/06/12 09:39:37;;;;;;;8.23;2.90;;;;;;;33.83;27.75;100261.03;1754266;81;20869;-43
2022/06/12 09:42:19;;;;;;;6.60;3.20;;;;;;;33.79;27.61;100266.45;1742794;80;20962;-42
2022/06/12 09:44:59;;;;;;;7.53;3.65;;;;;;;33.49;27.64;100261.94;1722809;81;21066;-43
2022/06/12 09:47:41;;;;;;;9.23;3.60;;;;;;;33.15;28.03;100260.55;1722319;82;20934;-42
2022/06/12 09:50:13;;;;;;;5.58;3.47;;;;;;;33.14;29.22;100258.06;1722580;82;21238;-42
2022/06/12 09:52:57;;;;;;;7.08;2.95;;;;;;;33.33;28.55;100252.68;1727320;82;21535;-42
2022/06/12 09:55:37;;;;;;;10.38;3.42;;;;;;;33.63;28.02;100248.70;1727583;83;21531;-42
2022/06/12 09:58:32;;;;;;;10.45;3.75;;;;;;;33.90;27.72;100249.04;1727452;82;20918;-42
2022/06/12 10:01:08;;;;;;;5.15;3.02;;;;;;;33.81;28.01;100243.78;1727498;82;20858;-42
2022/06/12 10:06:38;;;;;;;7.15;3.33;;;;;;;33.57;27.04;100236.84;1789013;79;22489;-42
2022/06/12 10:09:36;;;;;;;10.32;3.52;;;;;;;33.81;27.29;100240.26;1757539;81;20880;-42
2022/06/12 10:12:11;;;;;;;6.35;3.60;;;;;;;34.13;27.36;100230.66;1758071;81;21216;-42
2022/06/12 10:14:48;;;;;;;4.80;3.45;;;;;;;34.39;27.64;100230.94;1757902;81;20905;-43
2022/06/12 10:17:40;;;;;;;8.13;3.85;;;;;;;34.50;27.14;100232.84;1757947;81;20889;-43
2022/06/12 10:20:21;;;;;;;8.10;3.42;;;;;;;34.44;25.59;100226.35;1757190;81;20912;-42
2022/06/12 10:22:51;;;;;;;6.25;3.75;;;;;;;34.56;26.39;100219.98;1746307;81;20932;-42
2022/06/12 10:25:35;;;;;;;6.60;4.00;;;;;;;34.81;27.02;100216.89;1752394;81;21036;-43
2022/06/12 10:28:22;;;;;;;9.28;3.10;;;;;;;35.02;26.99;100212.54;1752346;81;20900;-43
2022/06/12 10:31:10;;;;;;;8.43;2.90;;;;;;;35.21;26.60;100216.37;1755878;81;20975;-43
2022/06/12 10:33:51;;;;;;;5.85;3.45;;;;;;;35.36;25.56;100203.63;1755919;81;21071;-43
2022/06/12 10:36:30;;;;;;;6.80;2.45;;;;;;;35.34;24.55;100208.91;1756194;81;21214;-43
2022/06/12 10:39:17;;;;;;;5.80;2.92;;;;;;;35.13;25.21;100206.61;1752853;81;21862;-41
2022/06/12 10:41:58;;;;;;;4.12;2.80;;;;;;;34.98;25.92;100202.65;1700869;83;20961;-42
2022/06/12 10:44:41;;;;;;;15.78;3.20;;;;;;;34.95;25.14;100195.80;1681065;84;20959;-42
2022/06/12 10:47:27;;;;;;;4.65;2.90;;;;;;;34.70;25.39;100198.59;1667071;85;21074;-41
2022/06/12 10:50:25;;;;;;;4.72;3.12;;;;;;;34.62;26.00;100192.34;1671613;84;21011;-43
2022/06/12 10:52:57;;;;;;;6.05;3.58;;;;;;;34.56;27.03;100190.44;1689767;84;21247;-44
2022/06/12 10:55:57;;;;;;;6.70;3.60;;;;;;;34.55;25.53;100188.78;1693032;84;20962;-42
2022/06/12 10:58:47;;;;;;;27.02;4.28;;;;;;;34.58;28.25;100185.70;1669055;85;20931;-44
2022/06/12 11:01:25;;;;;;;9.30;3.30;;;;;;;34.96;27.07;100185.36;1668601;84;20962;-44
2022/06/12 11:04:17;;;;;;;5.78;2.67;;;;;;;35.35;27.27;100178.30;1656936;86;21548;-43
2022/06/12 11:07:20;;;;;;;8.28;5.50;;;;;;;35.69;24.96;100177.95;1689623;83;21166;-43
2022/06/12 11:10:17;;;;;;;4.33;3.50;;;;;;;35.80;25.45;100174.70;1670811;86;20888;-42
2022/06/12 11:13:07;;;;;;;8.55;3.42;;;;;;;35.92;24.34;100169.55;1670840;86;21529;-44
2022/06/12 11:15:58;;;;;;;10.25;3.35;;;;;;;35.90;26.00;100160.02;1670630;86;21096;-43
2022/06/12 11:19:13;;;;;;;9.33;2.70;;;;;;;35.74;26.24;100161.20;1669161;86;20949;-44
2022/06/12 11:22:09;;;;;;;5.00;2.98;;;;;;;35.71;25.38;100153.55;1670378;84;20932;-42
2022/06/12 11:24:55;;;;;;;5.70;2.58;;;;;;;36.01;27.79;100159.44;1670904;85;20991;-42
2022/06/12 11:27:40;;;;;;;4.08;2.72;;;;;;;36.29;25.07;100149.05;1665635;84;21485;-42
2022/06/12 11:30:34;;;;;;;2.97;2.67;;;;;;;36.07;23.81;100147.88;1683477;84;20919;-47
2022/06/12 11:33:39;;;;;;;7.65;2.83;;;;;;;35.69;25.88;100139.47;1685856;84;20943;-44
2022/06/12 11:36:23;;;;;;;7.97;3.27;;;;;;;35.44;27.47;100139.96;1645951;84;21280;-43
2022/06/12 11:39:17;;;;;;;7.43;4.07;;;;;;;35.69;26.51;100134.09;1690387;84;20903;-43
2022/06/12 11:42:22;;;;;;;13.00;4.40;;;;;;;35.57;27.71;100129.80;1691752;84;21005;-42
2022/06/12 11:45:06;;;;;;;13.38;4.50;;;;;;;35.36;27.91;100131.02;1668496;84;20954;-44
2022/06/12 11:47:45;;;;;;;8.93;4.90;;;;;;;35.02;28.00;100123.83;1692425;84;20986;-42
2022/06/12 11:50:39;;;;;;;70.45;8.78;;;;;;;34.85;30.24;100129.48;1689462;84;21593;-44
2022/06/12 11:53:37;;;;;;;7.33;5.47;;;;;;;34.93;29.62;100125.81;1671196;84;20939;-44
2022/06/12 11:56:09;;;;;;;8.08;5.30;;;;;;;34.91;28.96;100127.87;1685953;84;21328;-43
2022/06/12 11:59:05;;;;;;;14.85;5.70;;;;;;;34.86;28.96;100123.08;1685543;84;20910;-43
2022/06/12 12:01:58;;;;;;;18.67;5.62;;;;;;;34.75;28.48;100123.10;1681108;84;21073;-45
2022/06/12 12:04:40;;;;;;;24.90;5.85;;;;;;;34.56;27.84;100115.72;1687569;84;21250;-43
2022/06/12 12:07:33;;;;;;;26.33;5.83;;;;;;;34.44;29.74;100115.39;1683033;84;20872;-42
2022/06/12 12:10:18;;;;;;;10.53;5.00;;;;;;;34.60;28.79;100107.59;1668891;84;21051;-44
2022/06/12 12:12:49;;;;;;;15.95;5.30;;;;;;;34.67;27.17;100106.61;1683106;84;20932;-42
2022/06/12 12:15:21;;;;;;;5.75;4.97;;;;;;;34.48;28.98;100116.19;1682097;84;20953;-43
2022/06/12 12:17:47;;;;;;;16.42;4.72;;;;;;;34.17;28.06;100110.63;1684900;84;21906;-43